Aviation Digital Data Service (ADDS)

Output produced by METARs form (0739 UTC 24 March 2019)
found at http://www.aviationweather.gov/metar/data/
 
LPBJ 240700Z 09004KT CAVOK 09/05 Q1020
TAF LPBJ 240501Z 2406/2506 09008KT CAVOK 
     TEMPO 2413/2423 10012G22KT 7000 -SHRA SCT035TCU 
     PROB40 
     TEMPO 2415/2418 4000 TSRA SCT030CB
       
LPCS 240730Z 05007KT CAVOK 14/05 Q1020
TAF LPCS 240732Z 2407/2415 06008KT CAVOK
       
LPFR 240730Z 06013KT CAVOK 14/08 Q1018
TAF LPFR 240500Z 2406/2506 08012KT CAVOK 
     BECMG 2406/2408 9999 SCT035 
     PROB30 
     TEMPO 2408/2414 08015G27KT 
     TEMPO 2414/2420 FEW040TCU 
     BECMG 2420/2422 05007KT CAVOK
       
LPHR 240730Z 02008KT 9999 FEW015 SCT030 13/08 Q1024
TAF LPHR 240732Z 2407/2415 01010KT 9999 SCT015 BKN030
       
LPLA 240700Z /////KT 9999 SCT020 13/10 Q1022
TAF LPLA 240506Z 2406/2506 01012KT 9999 FEW015 SCT030 
     PROB30 
     TEMPO 2406/2412 8000 -SHRA SCT008 BKN014 
     BECMG 2415/2418 11008KT
       
LPPT 240730Z 06008KT CAVOK 13/06 Q1021
TAF LPPT 240500Z 2406/2512 06008KT CAVOK 
     PROB30 
     TEMPO 2409/2415 06013G25KT 
     BECMG 2419/2421 35005KT 
     BECMG 2502/2505 05008KT
       
LPMA 240730Z 01011KT 9999 FEW016 16/10 Q1014
TAF LPMA 240500Z 2406/2506 36010KT 9999 SCT016 
     BECMG 2407/2410 03015KT 
     TEMPO 2410/2418 FEW015 BKN030
       
LPMR 240700Z 00000KT CAVOK 13/06 Q1021
TAF LPMR 240500Z 2406/2506 VRB02KT CAVOK 
     BECMG 2408/2410 10010KT 
     BECMG 2414/2417 36005KT 
     BECMG 2420/2422 18005KT 
     BECMG 2503/2505 11005KT
       
LPMT 240700Z 05008KT CAVOK 12/07 Q1020
TAF LPMT 240500Z 2406/2506 04008KT CAVOK 
     PROB30 
     TEMPO 2414/2418 8000 -SHRA FEW035TCU
       
LPOV 240700Z VRB01KT 9999 FEW025 08/05 Q1021
TAF LPOV 240459Z 2406/2506 VRB02KT CAVOK 
     BECMG 2407/2409 07005KT 
     BECMG 2412/2414 34010KT 
     BECMG 2420/2422 11008KT
       
LPPD 240730Z 02020G31KT 9999 FEW014 13/10 Q1019
TAF LPPD 240500Z 2406/2506 05010KT 9999 SCT018 
     TEMPO 2406/2412 SCT014 BKN030 
     BECMG 2412/2414 11010KT 
     BECMG 2420/2422 03008KT FEW015
       
LPPR 240730Z VRB02KT CAVOK 13/07 Q1022
TAF LPPR 240500Z 2406/2506 10008KT CAVOK 
     BECMG 2412/2415 34008KT 
     BECMG 2419/2421 VRB03KT 
     BECMG 2501/2503 08008KT
       
LPPS 240730Z 02009KT 350V060 9999 FEW015 16/11 Q1015
TAF LPPS 240500Z 2406/2512 04013KT 9999 SCT015 
     TEMPO 2406/2512 FEW015 BKN030 
     PROB30 
     TEMPO 2412/2418 10010KT
       
LPAZ 240730Z 04013G23KT 010V070 6000 -SHRA BR FEW004 SCT008 BKN012 13/13 Q1017
TAF LPAZ 240500Z 2406/2512 01020KT 9999 SCT020 
     TEMPO 2406/2408 8000 SHRA BKN015 FEW020TCU 
     BECMG 2407/2409 08013KT 
     BECMG 2420/2422 05008KT SCT015